sensor_id;sensor_type;location;lat;lon;timestamp;pressure;altitude;pressure_sealevel;temperature;humidity
22104;BME280;11218;48.886;9.426;2023-02-15T00:00:22;99373.25;;;1.40;91.06
22104;BME280;11218;48.886;9.426;2023-02-15T00:02:50;99369.59;;;1.41;90.66
22104;BME280;11218;48.886;9.426;2023-02-15T00:05:18;99364.28;;;1.41;91.07
22104;BME280;11218;48.886;9.426;2023-02-15T00:07:47;99371.59;;;1.39;89.64
22104;BME280;11218;48.886;9.426;2023-02-15T00:10:15;99365.97;;;1.42;91.01
22104;BME280;11218;48.886;9.426;2023-02-15T00:12:43;99365.97;;;1.42;89.73
22104;BME280;11218;48.886;9.426;2023-02-15T00:15:15;99360.66;;;1.42;89.81
22104;BME280;11218;48.886;9.426;2023-02-15T00:17:43;99362.31;;;1.43;89.50
22104;BME280;11218;48.886;9.426;2023-02-15T00:20:11;99361.50;;;1.43;90.33
22104;BME280;11218;48.886;9.426;2023-02-15T00:22:39;99363.94;;;1.36;89.66
22104;BME280;11218;48.886;9.426;2023-02-15T00:25:09;99362.59;;;1.32;89.48
22104;BME280;11218;48.886;9.426;2023-02-15T00:27:37;99356.78;;;1.28;90.01
22104;BME280;11218;48.886;9.426;2023-02-15T00:30:06;99363.91;;;1.28;90.30
22104;BME280;11218;48.886;9.426;2023-02-15T00:32:34;99361.25;;;1.28;89.34
22104;BME280;11218;48.886;9.426;2023-02-15T00:35:03;99359.75;;;1.25;89.64
22104;BME280;11218;48.886;9.426;2023-02-15T00:37:31;99364.38;;;1.23;89.69
22104;BME280;11218;48.886;9.426;2023-02-15T00:39:59;99355.06;;;1.19;89.67
22104;BME280;11218;48.886;9.426;2023-02-15T00:42:28;99357.41;;;1.22;90.19
22104;BME280;11218;48.886;9.426;2023-02-15T00:44:56;99353.13;;;1.29;88.58
22104;BME280;11218;48.886;9.426;2023-02-15T00:47:24;99352.00;;;1.06;89.47
22104;BME280;11218;48.886;9.426;2023-02-15T00:49:52;99354.66;;;1.06;89.15
22104;BME280;11218;48.886;9.426;2023-02-15T00:52:20;99360.06;;;0.96;89.91
22104;BME280;11218;48.886;9.426;2023-02-15T00:54:48;99348.78;;;0.94;90.29
22104;BME280;11218;48.886;9.426;2023-02-15T00:57:16;99354.91;;;0.95;89.20
22104;BME280;11218;48.886;9.426;2023-02-15T00:59:46;99359.06;;;0.97;90.12
22104;BME280;11218;48.886;9.426;2023-02-15T01:02:14;99351.13;;;0.97;90.05
22104;BME280;11218;48.886;9.426;2023-02-15T01:04:42;99349.31;;;0.98;89.50
22104;BME280;11218;48.886;9.426;2023-02-15T01:07:12;99351.78;;;0.99;89.56
22104;BME280;11218;48.886;9.426;2023-02-15T01:09:40;99344.84;;;0.98;89.61
22104;BME280;11218;48.886;9.426;2023-02-15T01:12:09;99342.03;;;1.00;90.00
22104;BME280;11218;48.886;9.426;2023-02-15T01:14:37;99342.69;;;1.02;89.83
22104;BME280;11218;48.886;9.426;2023-02-15T01:17:06;99343.38;;;1.04;88.83
22104;BME280;11218;48.886;9.426;2023-02-15T01:19:34;99336.25;;;1.05;88.58
22104;BME280;11218;48.886;9.426;2023-02-15T01:22:02;99340.72;;;1.04;88.77
22104;BME280;11218;48.886;9.426;2023-02-15T01:24:30;99339.38;;;1.00;89.54
22104;BME280;11218;48.886;9.426;2023-02-15T01:26:58;99337.34;;;0.94;88.86
22104;BME280;11218;48.886;9.426;2023-02-15T01:29:26;99335.00;;;0.91;89.34
22104;BME280;11218;48.886;9.426;2023-02-15T01:31:55;99334.03;;;0.92;89.98
22104;BME280;11218;48.886;9.426;2023-02-15T01:34:24;99330.53;;;0.91;89.71
22104;BME280;11218;48.886;9.426;2023-02-15T01:36:52;99324.41;;;0.91;88.54
22104;BME280;11218;48.886;9.426;2023-02-15T01:39:20;99325.25;;;0.91;89.96
22104;BME280;11218;48.886;9.426;2023-02-15T01:41:48;99329.84;;;0.89;89.31
22104;BME280;11218;48.886;9.426;2023-02-15T01:44:48;99335.47;;;0.86;89.67
22104;BME280;11218;48.886;9.426;2023-02-15T01:47:21;99329.44;;;0.76;89.22
22104;BME280;11218;48.886;9.426;2023-02-15T01:50:01;99328.44;;;0.77;89.69
22104;BME280;11218;48.886;9.426;2023-02-15T01:52:32;99331.59;;;0.73;89.75
22104;BME280;11218;48.886;9.426;2023-02-15T01:55:01;99335.31;;;0.62;88.88
22104;BME280;11218;48.886;9.426;2023-02-15T01:57:33;99332.09;;;0.50;89.88
22104;BME280;11218;48.886;9.426;2023-02-15T02:00:03;99327.31;;;0.54;88.89
22104;BME280;11218;48.886;9.426;2023-02-15T02:02:32;99335.56;;;0.51;89.71
22104;BME280;11218;48.886;9.426;2023-02-15T02:05:03;99335.25;;;0.54;90.23
22104;BME280;11218;48.886;9.426;2023-02-15T02:07:36;99332.69;;;0.44;89.00
22104;BME280;11218;48.886;9.426;2023-02-15T02:10:07;99326.97;;;0.31;89.78
22104;BME280;11218;48.886;9.426;2023-02-15T02:12:39;99323.41;;;0.22;91.20
22104;BME280;11218;48.886;9.426;2023-02-15T02:15:10;99323.03;;;0.17;91.12
22104;BME280;11218;48.886;9.426;2023-02-15T02:17:47;99316.75;;;0.18;90.34
22104;BME280;11218;48.886;9.426;2023-02-15T02:20:45;99315.00;;;0.27;91.58
22104;BME280;11218;48.886;9.426;2023-02-15T02:23:35;99315.38;;;0.32;92.02
22104;BME280;11218;48.886;9.426;2023-02-15T02:32:59;99303.81;;;0.33;91.03
22104;BME280;11218;48.886;9.426;2023-02-15T02:35:39;99291.56;;;0.32;89.94
22104;BME280;11218;48.886;9.426;2023-02-15T02:38:16;99297.53;;;0.34;91.24
22104;BME280;11218;48.886;9.426;2023-02-15T02:40:55;99290.44;;;0.35;91.00
22104;BME280;11218;48.886;9.426;2023-02-15T02:43:32;99293.91;;;0.35;90.21
22104;BME280;11218;48.886;9.426;2023-02-15T02:46:05;99292.09;;;0.36;91.17
22104;BME280;11218;48.886;9.426;2023-02-15T02:48:37;99278.84;;;0.36;90.52
22104;BME280;11218;48.886;9.426;2023-02-15T02:51:06;99293.06;;;0.35;90.66
22104;BME280;11218;48.886;9.426;2023-02-15T02:53:34;99296.53;;;0.35;89.76
22104;BME280;11218;48.886;9.426;2023-02-15T02:56:06;99307.44;;;0.32;88.70
22104;BME280;11218;48.886;9.426;2023-02-15T02:58:41;99309.56;;;0.28;88.49
22104;BME280;11218;48.886;9.426;2023-02-15T03:01:15;99310.41;;;0.29;89.22
22104;BME280;11218;48.886;9.426;2023-02-15T03:03:51;99308.22;;;0.24;89.18
22104;BME280;11218;48.886;9.426;2023-02-15T03:06:24;99313.19;;;0.27;88.28
22104;BME280;11218;48.886;9.426;2023-02-15T03:08:58;99306.91;;;0.28;88.73
22104;BME280;11218;48.886;9.426;2023-02-15T03:11:29;99308.28;;;0.32;88.30
22104;BME280;11218;48.886;9.426;2023-02-15T03:13:58;99311.38;;;0.28;88.24
22104;BME280;11218;48.886;9.426;2023-02-15T03:16:27;99310.84;;;0.24;87.74
22104;BME280;11218;48.886;9.426;2023-02-15T03:19:00;99308.81;;;0.18;88.94
22104;BME280;11218;48.886;9.426;2023-02-15T03:21:34;99306.47;;;0.15;89.09
22104;BME280;11218;48.886;9.426;2023-02-15T03:24:08;99306.25;;;0.26;87.37
22104;BME280;11218;48.886;9.426;2023-02-15T03:26:38;99300.34;;;0.15;86.61
22104;BME280;11218;48.886;9.426;2023-02-15T03:29:08;99301.94;;;0.08;87.04
22104;BME280;11218;48.886;9.426;2023-02-15T03:31:41;99297.88;;;-0.05;87.95
22104;BME280;11218;48.886;9.426;2023-02-15T03:34:13;99294.03;;;-0.10;88.45
22104;BME280;11218;48.886;9.426;2023-02-15T03:36:45;99293.34;;;-0.12;88.25
22104;BME280;11218;48.886;9.426;2023-02-15T03:39:19;99294.16;;;-0.12;89.22
22104;BME280;11218;48.886;9.426;2023-02-15T03:41:55;99283.75;;;-0.13;88.58
22104;BME280;11218;48.886;9.426;2023-02-15T03:44:29;99286.25;;;-0.12;89.51
22104;BME280;11218;48.886;9.426;2023-02-15T03:47:02;99277.91;;;-0.17;88.99
22104;BME280;11218;48.886;9.426;2023-02-15T03:49:38;99277.25;;;-0.19;89.30
22104;BME280;11218;48.886;9.426;2023-02-15T03:52:09;99280.03;;;-0.20;89.09
22104;BME280;11218;48.886;9.426;2023-02-15T03:54:37;99278.22;;;-0.20;88.84
22104;BME280;11218;48.886;9.426;2023-02-15T03:57:16;99278.75;;;-0.16;89.31
22104;BME280;11218;48.886;9.426;2023-02-15T04:00:04;99267.41;;;-0.26;88.38
22104;BME280;11218;48.886;9.426;2023-02-15T04:05:48;99298.53;;;-0.38;88.08
22104;BME280;11218;48.886;9.426;2023-02-15T04:08:17;99303.78;;;-0.56;88.03
22104;BME280;11218;48.886;9.426;2023-02-15T04:10:45;99300.94;;;-0.72;87.48
22104;BME280;11218;48.886;9.426;2023-02-15T04:13:24;99311.44;;;-0.80;88.73
22104;BME280;11218;48.886;9.426;2023-02-15T04:15:54;99313.09;;;-0.79;89.93
22104;BME280;11218;48.886;9.426;2023-02-15T04:18:32;99310.50;;;-0.89;89.53
22104;BME280;11218;48.886;9.426;2023-02-15T04:21:20;99304.09;;;-0.86;90.44
22104;BME280;11218;48.886;9.426;2023-02-15T04:24:07;99308.19;;;-0.74;90.37
22104;BME280;11218;48.886;9.426;2023-02-15T04:26:53;99304.94;;;-0.68;90.65
22104;BME280;11218;48.886;9.426;2023-02-15T04:29:22;99301.91;;;-0.73;90.37
22104;BME280;11218;48.886;9.426;2023-02-15T04:31:51;99297.16;;;-0.70;90.47
22104;BME280;11218;48.886;9.426;2023-02-15T04:34:19;99290.91;;;-0.69;91.09
22104;BME280;11218;48.886;9.426;2023-02-15T04:36:49;99283.81;;;-0.68;90.72
22104;BME280;11218;48.886;9.426;2023-02-15T04:39:18;99287.53;;;-0.61;91.50
22104;BME280;11218;48.886;9.426;2023-02-15T04:41:46;99288.91;;;-0.57;91.34
22104;BME280;11218;48.886;9.426;2023-02-15T04:44:15;99284.16;;;-0.53;91.06
22104;BME280;11218;48.886;9.426;2023-02-15T04:46:43;99287.63;;;-0.53;89.86
22104;BME280;11218;48.886;9.426;2023-02-15T04:49:11;99282.72;;;-0.48;90.33
22104;BME280;11218;48.886;9.426;2023-02-15T04:51:39;99285.06;;;-0.45;90.64
22104;BME280;11218;48.886;9.426;2023-02-15T04:54:09;99288.25;;;-0.41;90.52
22104;BME280;11218;48.886;9.426;2023-02-15T04:56:37;99285.75;;;-0.43;89.40
22104;BME280;11218;48.886;9.426;2023-02-15T04:59:05;99280.91;;;-0.47;89.63
22104;BME280;11218;48.886;9.426;2023-02-15T05:01:33;99284.38;;;-0.47;88.78
22104;BME280;11218;48.886;9.426;2023-02-15T05:04:02;99278.41;;;-0.49;89.20
22104;BME280;11218;48.886;9.426;2023-02-15T05:06:30;99274.41;;;-0.53;89.21
22104;BME280;11218;48.886;9.426;2023-02-15T05:08:58;99276.06;;;-0.52;89.55
22104;BME280;11218;48.886;9.426;2023-02-15T05:11:28;99272.44;;;-0.51;88.63
22104;BME280;11218;48.886;9.426;2023-02-15T05:13:56;99266.31;;;-0.51;89.20
22104;BME280;11218;48.886;9.426;2023-02-15T05:16:24;99272.28;;;-0.49;88.99
22104;BME280;11218;48.886;9.426;2023-02-15T05:18:52;99264.81;;;-0.54;89.05
22104;BME280;11218;48.886;9.426;2023-02-15T05:21:20;99264.94;;;-0.55;88.34
22104;BME280;11218;48.886;9.426;2023-02-15T05:23:48;99253.31;;;-0.62;88.58
22104;BME280;11218;48.886;9.426;2023-02-15T05:26:18;99255.81;;;-0.61;88.29
22104;BME280;11218;48.886;9.426;2023-02-15T05:29:05;99262.47;;;-0.57;88.99
22104;BME280;11218;48.886;9.426;2023-02-15T05:31:33;99258.84;;;-0.56;88.82
22104;BME280;11218;48.886;9.426;2023-02-15T05:34:02;99262.59;;;-0.58;88.48
22104;BME280;11218;48.886;9.426;2023-02-15T05:36:30;99272.50;;;-0.60;87.97
22104;BME280;11218;48.886;9.426;2023-02-15T05:38:58;99271.38;;;-0.58;88.84
22104;BME280;11218;48.886;9.426;2023-02-15T05:41:27;99272.88;;;-0.55;88.17
22104;BME280;11218;48.886;9.426;2023-02-15T05:43:55;99277.78;;;-0.60;87.56
22104;BME280;11218;48.886;9.426;2023-02-15T05:46:25;99272.50;;;-0.60;87.75
22104;BME280;11218;48.886;9.426;2023-02-15T05:48:53;99267.88;;;-0.58;87.92
22104;BME280;11218;48.886;9.426;2023-02-15T05:51:21;99268.03;;;-0.60;87.91
22104;BME280;11218;48.886;9.426;2023-02-15T05:53:49;99270.97;;;-0.63;87.79
22104;BME280;11218;48.886;9.426;2023-02-15T05:56:17;99266.97;;;-0.67;87.88
22104;BME280;11218;48.886;9.426;2023-02-15T05:58:45;99277.47;;;-0.75;87.10
22104;BME280;11218;48.886;9.426;2023-02-15T06:01:15;99263.78;;;-0.88;86.87
22104;BME280;11218;48.886;9.426;2023-02-15T06:03:46;99278.78;;;-0.89;87.65
22104;BME280;11218;48.886;9.426;2023-02-15T06:06:14;99287.44;;;-0.96;87.83
22104;BME280;11218;48.886;9.426;2023-02-15T06:08:43;99291.91;;;-0.97;87.47
22104;BME280;11218;48.886;9.426;2023-02-15T06:11:11;99296.75;;;-0.92;88.60
22104;BME280;11218;48.886;9.426;2023-02-15T06:13:40;99289.50;;;-0.90;88.67
22104;BME280;11218;48.886;9.426;2023-02-15T06:16:08;99288.81;;;-0.92;88.04
22104;BME280;11218;48.886;9.426;2023-02-15T06:18:36;99296.16;;;-0.86;87.99
22104;BME280;11218;48.886;9.426;2023-02-15T06:21:05;99291.41;;;-0.83;87.81
22104;BME280;11218;48.886;9.426;2023-02-15T06:23:34;99285.16;;;-0.82;87.31
22104;BME280;11218;48.886;9.426;2023-02-15T06:26:02;99299.19;;;-0.81;87.44
22104;BME280;11218;48.886;9.426;2023-02-15T06:28:30;99295.88;;;-0.83;87.44
22104;BME280;11218;48.886;9.426;2023-02-15T06:30:59;99297.28;;;-0.89;86.96
22104;BME280;11218;48.886;9.426;2023-02-15T06:33:27;99302.28;;;-0.86;87.28
22104;BME280;11218;48.886;9.426;2023-02-15T06:35:57;99294.66;;;-0.89;87.55
22104;BME280;11218;48.886;9.426;2023-02-15T06:38:26;99292.97;;;-0.90;87.36
22104;BME280;11218;48.886;9.426;2023-02-15T06:40:55;99290.09;;;-0.96;86.97
22104;BME280;11218;48.886;9.426;2023-02-15T06:43:23;99288.97;;;-0.94;86.92
22104;BME280;11218;48.886;9.426;2023-02-15T06:45:51;99298.13;;;-0.88;87.81
22104;BME280;11218;48.886;9.426;2023-02-15T06:48:19;99298.66;;;-0.85;87.07
22104;BME280;11218;48.886;9.426;2023-02-15T06:50:47;99298.41;;;-0.91;87.12
22104;BME280;11218;48.886;9.426;2023-02-15T06:53:16;99311.06;;;-0.95;86.75
22104;BME280;11218;48.886;9.426;2023-02-15T06:55:45;99304.13;;;-0.96;86.65
22104;BME280;11218;48.886;9.426;2023-02-15T06:58:13;99312.50;;;-1.01;86.22
22104;BME280;11218;48.886;9.426;2023-02-15T07:00:41;99314.44;;;-1.03;86.25
22104;BME280;11218;48.886;9.426;2023-02-15T07:03:13;99315.28;;;-1.02;86.60
22104;BME280;11218;48.886;9.426;2023-02-15T07:05:41;99315.13;;;-1.01;86.61
22104;BME280;11218;48.886;9.426;2023-02-15T07:08:10;99328.31;;;-0.91;86.44
22104;BME280;11218;48.886;9.426;2023-02-15T07:10:38;99329.13;;;-0.90;86.58
22104;BME280;11218;48.886;9.426;2023-02-15T07:13:07;99315.25;;;-0.92;85.80
22104;BME280;11218;48.886;9.426;2023-02-15T07:15:34;99311.63;;;-0.91;86.27
22104;BME280;11218;48.886;9.426;2023-02-15T07:18:03;99318.13;;;-0.86;86.70
22104;BME280;11218;48.886;9.426;2023-02-15T07:20:31;99316.63;;;-0.88;86.29
22104;BME280;11218;48.886;9.426;2023-02-15T07:23:03;99309.97;;;-0.92;85.38
22104;BME280;11218;48.886;9.426;2023-02-15T07:25:32;99323.03;;;-0.91;85.97
22104;BME280;11218;48.886;9.426;2023-02-15T07:28:02;99321.66;;;-0.95;85.38
22104;BME280;11218;48.886;9.426;2023-02-15T07:30:31;99315.41;;;-1.04;85.62
22104;BME280;11218;48.886;9.426;2023-02-15T07:33:00;99333.34;;;-0.97;86.19
22104;BME280;11218;48.886;9.426;2023-02-15T07:35:49;99324.44;;;-0.96;85.29
22104;BME280;11218;48.886;9.426;2023-02-15T07:38:18;99324.16;;;-0.93;85.88
22104;BME280;11218;48.886;9.426;2023-02-15T07:40:46;99327.19;;;-0.88;85.53
22104;BME280;11218;48.886;9.426;2023-02-15T07:43:15;99334.97;;;-0.87;85.60
22104;BME280;11218;48.886;9.426;2023-02-15T07:45:45;99328.28;;;-0.81;85.67
22104;BME280;11218;48.886;9.426;2023-02-15T07:48:14;99318.09;;;-0.76;86.37
22104;BME280;11218;48.886;9.426;2023-02-15T07:50:45;99316.94;;;-0.74;85.18
22104;BME280;11218;48.886;9.426;2023-02-15T07:53:13;99320.41;;;-0.73;85.22
22104;BME280;11218;48.886;9.426;2023-02-15T07:55:41;99318.16;;;-0.68;86.01
22104;BME280;11218;48.886;9.426;2023-02-15T07:58:09;99310.09;;;-0.67;86.23
22104;BME280;11218;48.886;9.426;2023-02-15T08:00:37;99301.44;;;-0.59;86.50
22104;BME280;11218;48.886;9.426;2023-02-15T08:03:22;99297.81;;;-0.58;86.51
22104;BME280;11218;48.886;9.426;2023-02-15T08:05:56;99299.41;;;-0.47;86.46
22104;BME280;11218;48.886;9.426;2023-02-15T08:08:25;99309.34;;;-0.31;86.12
22104;BME280;11218;48.886;9.426;2023-02-15T08:11:02;99314.56;;;-0.22;85.46
22104;BME280;11218;48.886;9.426;2023-02-15T08:13:58;99305.59;;;-0.11;85.90
22104;BME280;11218;48.886;9.426;2023-02-15T08:16:31;99308.63;;;-0.06;85.39
22104;BME280;11218;48.886;9.426;2023-02-15T08:19:02;99303.91;;;0.06;84.65
22104;BME280;11218;48.886;9.426;2023-02-15T08:21:31;99303.28;;;0.12;85.05
22104;BME280;11218;48.886;9.426;2023-02-15T08:24:00;99310.19;;;0.22;84.38
22104;BME280;11218;48.886;9.426;2023-02-15T08:26:30;99304.94;;;0.30;84.11
22104;BME280;11218;48.886;9.426;2023-02-15T08:28:59;99307.97;;;0.36;84.43
22104;BME280;11218;48.886;9.426;2023-02-15T08:31:27;99301.91;;;0.43;84.33
22104;BME280;11218;48.886;9.426;2023-02-15T08:33:56;99309.31;;;0.57;82.58
22104;BME280;11218;48.886;9.426;2023-02-15T08:36:27;99320.13;;;0.64;82.57
22104;BME280;11218;48.886;9.426;2023-02-15T08:38:57;99318.50;;;0.71;83.63
22104;BME280;11218;48.886;9.426;2023-02-15T08:41:27;99313.06;;;0.81;82.12
22104;BME280;11218;48.886;9.426;2023-02-15T08:43:58;99308.09;;;0.78;82.59
22104;BME280;11218;48.886;9.426;2023-02-15T08:46:29;99313.81;;;0.91;82.27
22104;BME280;11218;48.886;9.426;2023-02-15T08:48:58;99317.13;;;0.93;82.02
22104;BME280;11218;48.886;9.426;2023-02-15T08:51:30;99314.53;;;1.01;81.89
22104;BME280;11218;48.886;9.426;2023-02-15T08:54:00;99315.19;;;1.03;82.63
22104;BME280;11218;48.886;9.426;2023-02-15T08:56:30;99318.41;;;1.15;81.20
22104;BME280;11218;48.886;9.426;2023-02-15T08:59:00;99318.47;;;1.23;81.38
22104;BME280;11218;48.886;9.426;2023-02-15T09:01:30;99310.19;;;1.26;82.58
22104;BME280;11218;48.886;9.426;2023-02-15T09:04:00;99311.41;;;1.40;83.02
22104;BME280;11218;48.886;9.426;2023-02-15T09:06:29;99297.81;;;1.43;81.94
22104;BME280;11218;48.886;9.426;2023-02-15T09:08:58;99304.00;;;1.59;81.81
22104;BME280;11218;48.886;9.426;2023-02-15T09:11:27;99295.38;;;1.57;81.67
22104;BME280;11218;48.886;9.426;2023-02-15T09:13:57;99304.03;;;1.68;81.72
22104;BME280;11218;48.886;9.426;2023-02-15T09:16:27;99302.22;;;1.76;82.13
22104;BME280;11218;48.886;9.426;2023-02-15T09:18:56;99295.59;;;1.80;82.35
22104;BME280;11218;48.886;9.426;2023-02-15T09:21:26;99280.19;;;1.92;82.43
22104;BME280;11218;48.886;9.426;2023-02-15T09:23:57;99274.56;;;2.03;81.43
22104;BME280;11218;48.886;9.426;2023-02-15T09:26:28;99276.41;;;2.11;81.30
22104;BME280;11218;48.886;9.426;2023-02-15T09:28:58;99268.94;;;2.22;81.40
22104;BME280;11218;48.886;9.426;2023-02-15T09:31:28;99256.28;;;2.33;81.13
22104;BME280;11218;48.886;9.426;2023-02-15T09:33:58;99267.91;;;2.40;81.89
22104;BME280;11218;48.886;9.426;2023-02-15T09:36:32;99257.94;;;2.58;80.34
22104;BME280;11218;48.886;9.426;2023-02-15T09:39:06;99264.56;;;2.62;80.54
22104;BME280;11218;48.886;9.426;2023-02-15T09:42:04;99263.72;;;2.70;80.90
22104;BME280;11218;48.886;9.426;2023-02-15T09:45:05;99254.72;;;2.87;81.12
22104;BME280;11218;48.886;9.426;2023-02-15T09:47:49;99252.63;;;3.05;81.16
22104;BME280;11218;48.886;9.426;2023-02-15T09:50:27;99262.53;;;3.27;80.64
22104;BME280;11218;48.886;9.426;2023-02-15T09:53:14;99255.88;;;3.32;79.89
22104;BME280;11218;48.886;9.426;2023-02-15T09:55:55;99257.53;;;3.33;79.92
22104;BME280;11218;48.886;9.426;2023-02-15T09:58:38;99253.13;;;3.48;79.42
22104;BME280;11218;48.886;9.426;2023-02-15T10:01:17;99256.28;;;3.51;79.84
22104;BME280;11218;48.886;9.426;2023-02-15T10:04:11;99253.75;;;3.58;80.29
22104;BME280;11218;48.886;9.426;2023-02-15T10:06:52;99245.41;;;3.84;79.82
22104;BME280;11218;48.886;9.426;2023-02-15T10:09:38;99242.69;;;3.92;79.55
22104;BME280;11218;48.886;9.426;2023-02-15T10:12:27;99238.06;;;4.09;79.08
22104;BME280;11218;48.886;9.426;2023-02-15T10:15:16;99232.06;;;4.29;79.16
22104;BME280;11218;48.886;9.426;2023-02-15T10:18:07;99236.69;;;4.50;78.32
22104;BME280;11218;48.886;9.426;2023-02-15T10:20:46;99230.38;;;4.66;78.18
22104;BME280;11218;48.886;9.426;2023-02-15T10:23:31;99223.50;;;4.86;77.55
22104;BME280;11218;48.886;9.426;2023-02-15T10:26:11;99210.72;;;4.97;74.98
22104;BME280;11218;48.886;9.426;2023-02-15T10:28:48;99222.47;;;5.02;76.63
22104;BME280;11218;48.886;9.426;2023-02-15T10:31:24;99214.66;;;5.15;76.61
22104;BME280;11218;48.886;9.426;2023-02-15T10:34:13;99216.25;;;5.31;76.19
22104;BME280;11218;48.886;9.426;2023-02-15T10:39:53;99210.47;;;5.64;75.02
22104;BME280;11218;48.886;9.426;2023-02-15T10:42:30;99208.47;;;5.87;74.91
22104;BME280;11218;48.886;9.426;2023-02-15T10:45:16;99204.97;;;6.08;74.78
22104;BME280;11218;48.886;9.426;2023-02-15T10:47:59;99197.72;;;6.23;73.34
22104;BME280;11218;48.886;9.426;2023-02-15T10:50:44;99196.53;;;6.32;73.32
22104;BME280;11218;48.886;9.426;2023-02-15T10:53:24;99198.00;;;6.35;73.09
22104;BME280;11218;48.886;9.426;2023-02-15T10:55:59;99204.69;;;6.45;73.57
22104;BME280;11218;48.886;9.426;2023-02-15T10:58:42;99184.78;;;6.54;72.82
22104;BME280;11218;48.886;9.426;2023-02-15T11:01:18;99198.25;;;6.68;71.65
22104;BME280;11218;48.886;9.426;2023-02-15T11:04:08;99184.50;;;6.77;71.80
22104;BME280;11218;48.886;9.426;2023-02-15T11:06:46;99172.56;;;6.80;71.73
22104;BME280;11218;48.886;9.426;2023-02-15T11:09:19;99170.53;;;6.82;71.63
22104;BME280;11218;48.886;9.426;2023-02-15T11:11:52;99170.41;;;6.97;71.25
22104;BME280;11218;48.886;9.426;2023-02-15T11:14:31;99171.91;;;7.12;71.51
22104;BME280;11218;48.886;9.426;2023-02-15T11:17:06;99170.75;;;7.28;71.92
22104;BME280;11218;48.886;9.426;2023-02-15T11:19:39;99176.97;;;7.42;71.31
22104;BME280;11218;48.886;9.426;2023-02-15T11:22:11;99173.06;;;7.51;70.46
22104;BME280;11218;48.886;9.426;2023-02-15T11:24:42;99166.91;;;7.57;70.44
22104;BME280;11218;48.886;9.426;2023-02-15T11:27:19;99161.13;;;7.60;69.59
22104;BME280;11218;48.886;9.426;2023-02-15T11:29:57;99155.19;;;7.71;70.57
22104;BME280;11218;48.886;9.426;2023-02-15T11:32:30;99156.22;;;7.77;69.62
22104;BME280;11218;48.886;9.426;2023-02-15T11:35:02;99161.38;;;7.78;69.12
22104;BME280;11218;48.886;9.426;2023-02-15T11:37:37;99162.22;;;7.85;69.39
22104;BME280;11218;48.886;9.426;2023-02-15T11:40:17;99160.16;;;7.94;69.05
22104;BME280;11218;48.886;9.426;2023-02-15T11:42:48;99153.56;;;7.97;69.37
22104;BME280;11218;48.886;9.426;2023-02-15T11:45:22;99161.00;;;8.01;69.01
22104;BME280;11218;48.886;9.426;2023-02-15T11:47:55;99160.78;;;8.09;69.63
22104;BME280;11218;48.886;9.426;2023-02-15T11:50:25;99162.03;;;8.13;69.34
22104;BME280;11218;48.886;9.426;2023-02-15T11:52:57;99158.28;;;8.21;69.74
22104;BME280;11218;48.886;9.426;2023-02-15T11:55:27;99151.91;;;8.22;69.89
22104;BME280;11218;48.886;9.426;2023-02-15T11:58:00;99157.06;;;8.30;69.61
22104;BME280;11218;48.886;9.426;2023-02-15T12:00:35;99157.06;;;8.30;70.63
22104;BME280;11218;48.886;9.426;2023-02-15T12:03:13;99156.03;;;8.44;70.06
22104;BME280;11218;48.886;9.426;2023-02-15T12:05:45;99160.38;;;8.45;69.20
22104;BME280;11218;48.886;9.426;2023-02-15T12:08:20;99155.00;;;8.45;68.95
22104;BME280;11218;48.886;9.426;2023-02-15T12:10:57;99159.13;;;8.41;68.69
22104;BME280;11218;48.886;9.426;2023-02-15T12:13:28;99149.84;;;8.44;69.16
22104;BME280;11218;48.886;9.426;2023-02-15T12:15:58;99150.88;;;8.43;69.64
22104;BME280;11218;48.886;9.426;2023-02-15T12:18:38;99151.91;;;8.55;69.09
22104;BME280;11218;48.886;9.426;2023-02-15T12:21:10;99145.91;;;8.66;69.61
22104;BME280;11218;48.886;9.426;2023-02-15T12:23:46;99151.84;;;8.81;69.04
22104;BME280;11218;48.886;9.426;2023-02-15T12:26:24;99140.91;;;8.83;69.59
22104;BME280;11218;48.886;9.426;2023-02-15T12:28:53;99142.53;;;8.91;68.22
22104;BME280;11218;48.886;9.426;2023-02-15T12:31:27;99133.88;;;8.88;69.18
22104;BME280;11218;48.886;9.426;2023-02-15T12:34:00;99141.03;;;9.01;67.96
22104;BME280;11218;48.886;9.426;2023-02-15T12:36:32;99126.75;;;9.07;67.58
22104;BME280;11218;48.886;9.426;2023-02-15T12:39:09;99136.25;;;9.03;67.67
22104;BME280;11218;48.886;9.426;2023-02-15T12:41:45;99130.06;;;9.03;67.15
22104;BME280;11218;48.886;9.426;2023-02-15T12:44:17;99130.50;;;9.00;68.19
22104;BME280;11218;48.886;9.426;2023-02-15T12:46:56;99128.78;;;9.12;68.36
22104;BME280;11218;48.886;9.426;2023-02-15T12:49:32;99127.53;;;9.14;68.04
22104;BME280;11218;48.886;9.426;2023-02-15T12:52:01;99113.66;;;9.24;66.94
22104;BME280;11218;48.886;9.426;2023-02-15T12:54:38;99109.94;;;9.25;67.97
22104;BME280;11218;48.886;9.426;2023-02-15T12:57:22;99107.38;;;9.37;67.37
22104;BME280;11218;48.886;9.426;2023-02-15T12:59:54;99109.78;;;9.51;67.15
22104;BME280;11218;48.886;9.426;2023-02-15T13:02:29;99107.69;;;9.53;66.88
22104;BME280;11218;48.886;9.426;2023-02-15T13:05:13;99100.81;;;9.64;66.88
22104;BME280;11218;48.886;9.426;2023-02-15T13:07:46;99099.22;;;9.81;65.22
22104;BME280;11218;48.886;9.426;2023-02-15T13:10:23;99088.44;;;9.81;65.27
22104;BME280;11218;48.886;9.426;2023-02-15T13:12:54;99090.31;;;9.81;65.32
22104;BME280;11218;48.886;9.426;2023-02-15T13:15:28;99083.91;;;9.82;65.29
22104;BME280;11218;48.886;9.426;2023-02-15T13:17:59;99083.69;;;9.83;64.61
22104;BME280;11218;48.886;9.426;2023-02-15T13:20:29;99073.16;;;9.82;65.36
22104;BME280;11218;48.886;9.426;2023-02-15T13:23:03;99075.94;;;9.94;65.18
22104;BME280;11218;48.886;9.426;2023-02-15T13:25:40;99067.44;;;9.97;64.80
22104;BME280;11218;48.886;9.426;2023-02-15T13:28:15;99066.34;;;10.04;64.05
22104;BME280;11218;48.886;9.426;2023-02-15T13:30:46;99065.97;;;10.01;65.23
22104;BME280;11218;48.886;9.426;2023-02-15T13:33:23;99060.47;;;10.14;64.80
22104;BME280;11218;48.886;9.426;2023-02-15T13:36:02;99050.06;;;10.17;64.53
22104;BME280;11218;48.886;9.426;2023-02-15T13:38:51;99056.09;;;10.19;64.02
22104;BME280;11218;48.886;9.426;2023-02-15T13:41:27;99041.78;;;10.19;64.45
22104;BME280;11218;48.886;9.426;2023-02-15T13:44:09;99048.25;;;10.36;64.71
22104;BME280;11218;48.886;9.426;2023-02-15T13:46:49;99048.53;;;10.46;63.62
22104;BME280;11218;48.886;9.426;2023-02-15T13:49:32;99041.00;;;10.55;62.64